Time;durP1;ratioP1;P1;durP2;ratioP2;P2;SDS_P1;SDS_P2;PMS_P1;PMS_P2;Temp;Humidity;BMP_temperature;BMP_pressure;BME280_temperature;BME280_humidity;BME280_pressure;Samples;Min_cycle;Max_cycle;Signal;HPM_P1;HPM_P2
2023/10/01 00:03:18;;;;;;;9.73;7.20;;;16.10;98.40;;;;;;10541598;28;20627;-80
2023/10/01 00:08:21;;;;;;;9.50;6.63;;;16.10;98.60;;;;;;10524377;28;20330;-79
2023/10/01 00:13:23;;;;;;;11.07;7.93;;;16.10;98.70;;;;;;10538597;28;20197;-79
2023/10/01 00:18:26;;;;;;;7.93;6.80;;;16.00;98.70;;;;;;10510798;28;20279;-80
2023/10/01 00:23:28;;;;;;;11.30;7.37;;;16.00;98.80;;;;;;10535031;28;20265;-80
2023/10/01 00:28:30;;;;;;;11.70;7.80;;;16.00;98.70;;;;;;10539338;28;20227;-80
2023/10/01 00:33:34;;;;;;;12.97;7.40;;;16.00;98.60;;;;;;10523373;28;20280;-80
2023/10/01 00:38:36;;;;;;;8.47;7.27;;;16.00;98.80;;;;;;10522791;28;20220;-80
2023/10/01 00:43:39;;;;;;;7.87;6.57;;;15.90;98.80;;;;;;10529755;28;20241;-80
2023/10/01 00:48:44;;;;;;;11.40;7.47;;;15.90;98.80;;;;;;10533386;28;20359;-80
2023/10/01 00:53:46;;;;;;;9.93;7.50;;;15.90;98.80;;;;;;10515716;28;20641;-80
2023/10/01 00:58:48;;;;;;;11.33;7.20;;;15.90;99.00;;;;;;10498426;28;20775;-80
2023/10/01 01:03:52;;;;;;;10.10;7.00;;;15.90;98.90;;;;;;10512138;28;20235;-80
2023/10/01 01:08:55;;;;;;;8.83;7.33;;;15.90;98.80;;;;;;10527510;28;20244;-81
2023/10/01 01:13:57;;;;;;;8.67;6.80;;;15.80;98.70;;;;;;10528866;28;20193;-80
2023/10/01 01:19:03;;;;;;;10.90;7.60;;;15.70;98.60;;;;;;10519586;28;20665;-81
2023/10/01 01:24:07;;;;;;;9.87;7.33;;;15.70;99.00;;;;;;10548101;28;20207;-80
2023/10/01 01:29:18;;;;;;;11.73;8.60;;;15.70;99.10;;;;;;10537765;28;20224;-80
2023/10/01 01:34:29;;;;;;;11.13;8.47;;;15.60;99.10;;;;;;10520465;28;20664;-81
2023/10/01 01:39:45;;;;;;;10.10;8.03;;;15.60;99.10;;;;;;10531949;28;20220;-81
2023/10/01 01:44:48;;;;;;;12.77;8.37;;;15.60;99.10;;;;;;10515540;28;20207;-81
2023/10/01 01:49:58;;;;;;;11.50;8.23;;;15.50;99.30;;;;;;10514782;28;20303;-81
2023/10/01 01:55:22;;;;;;;11.03;8.47;;;15.50;99.20;;;;;;10511804;28;20596;-81
2023/10/01 02:00:26;;;;;;;13.60;9.07;;;15.40;99.30;;;;;;10530801;28;20216;-81
2023/10/01 02:05:28;;;;;;;9.23;7.50;;;15.40;99.60;;;;;;10522581;28;20231;-81
2023/10/01 02:10:32;;;;;;;13.20;9.30;;;15.40;99.40;;;;;;10520269;28;20224;-81
2023/10/01 02:15:35;;;;;;;15.80;9.20;;;15.40;99.70;;;;;;10499679;28;20197;-80
2023/10/01 02:20:37;;;;;;;11.70;8.70;;;15.30;99.70;;;;;;10520942;28;20208;-81
2023/10/01 02:25:45;;;;;;;12.87;8.60;;;15.30;99.80;;;;;;10507990;28;20283;-81
2023/10/01 02:30:52;;;;;;;9.17;8.10;;;15.30;99.70;;;;;;10521777;28;20611;-80
2023/10/01 02:35:58;;;;;;;12.43;8.87;;;15.30;99.80;;;;;;10547361;28;20203;-81
2023/10/01 02:41:02;;;;;;;12.57;8.80;;;15.30;99.90;;;;;;10547854;28;20303;-81
2023/10/01 02:46:09;;;;;;;9.50;8.23;;;15.30;99.90;;;;;;10525152;28;20197;-80
2023/10/01 02:51:32;;;;;;;12.30;9.50;;;15.30;99.70;;;;;;10523718;28;20217;-81
2023/10/01 02:56:37;;;;;;;11.57;8.97;;;15.30;99.70;;;;;;10534260;28;20199;-81
2023/10/01 03:01:42;;;;;;;10.40;8.30;;;15.20;99.90;;;;;;10540854;28;20216;-81
2023/10/01 03:06:52;;;;;;;12.63;8.33;;;15.20;99.90;;;;;;10518106;28;20263;-80
2023/10/01 03:12:24;;;;;;;10.90;8.30;;;15.20;99.90;;;;;;10510782;28;20277;-80
2023/10/01 03:17:18;;;;;;;12.10;8.90;;;15.10;99.80;;;;;;10528396;28;20215;-81
2023/10/01 03:22:23;;;;;;;11.70;8.20;;;15.10;99.90;;;;;;10513256;28;20204;-80
2023/10/01 03:27:27;;;;;;;10.83;8.67;;;15.10;99.90;;;;;;10540001;28;20215;-80
2023/10/01 03:32:32;;;;;;;10.07;7.67;;;15.10;99.80;;;;;;10535519;28;20258;-81
2023/10/01 03:37:39;;;;;;;11.57;9.93;;;15.10;99.90;;;;;;10525405;28;20204;-80
2023/10/01 03:42:50;;;;;;;10.10;8.80;;;15.10;99.90;;;;;;10532695;28;20275;-80
2023/10/01 03:47:57;;;;;;;10.70;8.73;;;15.10;99.90;;;;;;10527429;28;20543;-81
2023/10/01 03:52:59;;;;;;;10.53;8.40;;;15.10;99.90;;;;;;10511593;28;20219;-81
2023/10/01 03:58:18;;;;;;;10.07;8.30;;;15.10;99.90;;;;;;10537423;28;20266;-80
2023/10/01 04:03:21;;;;;;;16.03;9.30;;;15.00;99.70;;;;;;10530509;28;20196;-79
2023/10/01 04:08:23;;;;;;;13.07;9.23;;;15.00;99.90;;;;;;10538235;28;20602;-80
2023/10/01 04:13:27;;;;;;;10.90;7.90;;;15.00;99.90;;;;;;10527293;28;20192;-80
2023/10/01 04:18:33;;;;;;;12.73;8.30;;;14.90;99.90;;;;;;10521021;28;20255;-81
2023/10/01 04:23:40;;;;;;;11.73;8.50;;;14.90;99.90;;;;;;10534740;28;20227;-80
2023/10/01 04:28:45;;;;;;;10.50;8.30;;;14.90;99.90;;;;;;10526485;28;20700;-80
2023/10/01 04:33:49;;;;;;;12.60;8.63;;;14.90;99.90;;;;;;10536897;28;20584;-80
2023/10/01 04:51:44;;;;;;;10.53;7.80;;;14.80;99.90;;;;;;10465155;28;20304;-82
2023/10/01 04:57:09;;;;;;;10.60;8.10;;;14.80;99.90;;;;;;10553144;28;20221;-82
2023/10/01 05:02:52;;;;;;;12.17;8.90;;;14.80;99.90;;;;;;10565733;28;20216;-82
2023/10/01 05:08:47;;;;;;;12.47;8.83;;;14.70;99.90;;;;;;10562093;28;20220;-82
2023/10/01 05:14:59;;;;;;;9.60;8.43;;;14.70;99.90;;;;;;10532060;28;20622;-82
2023/10/01 05:44:42;;;;;;;14.90;9.23;;;14.80;99.90;;;;;;10554744;28;20192;-82
2023/10/01 05:50:28;;;;;;;12.03;8.03;;;14.80;99.90;;;;;;10570923;28;20223;-82
2023/10/01 05:56:47;;;;;;;13.30;8.40;;;14.80;99.80;;;;;;10567543;28;20250;-81
2023/10/01 06:01:52;;;;;;;10.73;8.40;;;14.80;99.90;;;;;;10544153;28;20220;-82
2023/10/01 06:07:13;;;;;;;8.73;7.57;;;14.80;99.90;;;;;;10525365;28;20323;-82
2023/10/01 06:12:50;;;;;;;10.83;8.03;;;14.80;99.90;;;;;;10544870;28;20301;-82
2023/10/01 06:18:05;;;;;;;8.50;7.30;;;14.80;99.90;;;;;;10544483;28;20193;-81
2023/10/01 06:23:10;;;;;;;14.47;8.70;;;14.90;99.90;;;;;;10540333;28;20197;-82
2023/10/01 06:28:24;;;;;;;9.70;8.60;;;14.90;99.90;;;;;;10533683;28;20228;-81
2023/10/01 06:33:40;;;;;;;11.83;8.10;;;14.90;99.90;;;;;;10539463;28;20562;-81
2023/10/01 06:39:19;;;;;;;12.20;8.67;;;15.00;99.90;;;;;;10544540;28;20234;-81
2023/10/01 06:50:07;;;;;;;10.03;7.50;;;15.00;99.90;;;;;;10541013;28;20232;-81
2023/10/01 06:55:25;;;;;;;10.60;7.80;;;15.00;99.90;;;;;;10552329;28;20216;-80
2023/10/01 07:00:33;;;;;;;10.57;7.77;;;15.10;99.90;;;;;;10552064;28;20284;-81
2023/10/01 07:05:35;;;;;;;12.40;10.03;;;15.20;99.90;;;;;;10569305;28;20227;-81
2023/10/01 07:10:37;;;;;;;10.60;9.00;;;15.30;99.90;;;;;;10562625;28;20229;-81
2023/10/01 07:15:43;;;;;;;10.60;7.60;;;15.30;99.90;;;;;;10542674;28;20197;-80
2023/10/01 07:20:49;;;;;;;8.60;7.70;;;15.40;99.90;;;;;;10559645;28;20213;-80
2023/10/01 07:26:00;;;;;;;11.60;9.07;;;15.50;99.90;;;;;;10559323;28;20220;-81
2023/10/01 07:31:04;;;;;;;12.30;9.57;;;15.50;99.90;;;;;;10556245;28;20733;-81
2023/10/01 07:36:10;;;;;;;13.23;9.50;;;15.60;99.90;;;;;;10557879;28;20211;-80
2023/10/01 07:41:16;;;;;;;12.43;9.60;;;15.70;99.90;;;;;;10560040;28;20224;-81
2023/10/01 07:46:19;;;;;;;11.70;9.77;;;15.80;99.90;;;;;;10558998;28;20204;-80
2023/10/01 07:51:26;;;;;;;11.13;8.10;;;16.00;99.90;;;;;;10558128;28;20216;-81
2023/10/01 07:56:28;;;;;;;13.43;9.27;;;16.10;99.90;;;;;;10563982;28;20212;-81
2023/10/01 08:01:42;;;;;;;12.40;8.73;;;16.20;99.90;;;;;;10564078;28;20216;-81
2023/10/01 08:06:49;;;;;;;11.10;8.70;;;16.30;99.90;;;;;;10563828;28;20216;-82
2023/10/01 08:12:05;;;;;;;12.87;8.60;;;16.40;99.90;;;;;;10569970;28;20223;-81
2023/10/01 08:17:09;;;;;;;7.27;5.97;;;16.50;99.90;;;;;;10528228;28;20226;-81
2023/10/01 08:22:23;;;;;;;12.80;8.10;;;16.60;99.90;;;;;;10560719;28;20205;-81
2023/10/01 08:27:31;;;;;;;8.70;7.03;;;16.70;99.90;;;;;;10563363;28;20608;-81
2023/10/01 08:32:38;;;;;;;12.90;8.53;;;16.80;99.90;;;;;;10561196;28;20226;-80
2023/10/01 08:37:49;;;;;;;13.90;8.53;;;16.80;99.90;;;;;;10557037;28;20192;-81
2023/10/01 08:42:52;;;;;;;12.97;8.83;;;17.00;99.90;;;;;;10561143;28;20217;-80
2023/10/01 08:47:59;;;;;;;9.90;7.33;;;17.00;99.90;;;;;;10559100;28;20307;-81
2023/10/01 08:53:09;;;;;;;9.60;7.33;;;17.10;99.90;;;;;;10560122;28;20231;-81
2023/10/01 08:58:15;;;;;;;9.77;7.57;;;17.20;99.90;;;;;;10550379;28;20576;-81
2023/10/01 09:03:28;;;;;;;12.80;7.77;;;17.30;99.90;;;;;;10549014;28;20203;-81
2023/10/01 09:08:31;;;;;;;11.30;7.70;;;17.40;99.90;;;;;;10565992;28;20239;-80
2023/10/01 09:13:33;;;;;;;11.60;7.77;;;17.50;99.90;;;;;;10553150;28;20235;-82
2023/10/01 09:18:38;;;;;;;9.20;7.70;;;17.60;99.90;;;;;;10566255;28;20626;-81
2023/10/01 09:29:13;;;;;;;10.27;7.33;;;17.80;99.90;;;;;;10557080;28;20310;-81
2023/10/01 09:34:31;;;;;;;9.53;6.47;;;18.00;99.90;;;;;;10561690;28;20667;-81
2023/10/01 09:39:38;;;;;;;11.87;6.93;;;18.20;99.90;;;;;;10565555;28;20212;-82
2023/10/01 09:44:46;;;;;;;10.40;6.73;;;18.40;99.90;;;;;;10556041;28;20634;-82
2023/10/01 09:49:52;;;;;;;11.50;6.60;;;18.70;99.90;;;;;;10566666;28;20228;-80
2023/10/01 09:55:02;;;;;;;9.43;6.90;;;18.90;99.90;;;;;;10591138;28;20205;-81
2023/10/01 10:00:17;;;;;;;10.80;7.27;;;19.10;99.90;;;;;;10573994;28;20216;-81
2023/10/01 10:05:26;;;;;;;10.60;6.60;;;19.10;99.60;;;;;;10578236;28;20214;-81
2023/10/01 10:10:28;;;;;;;8.93;6.73;;;19.10;99.50;;;;;;10533024;28;20285;-80
2023/10/01 10:15:55;;;;;;;10.07;7.30;;;19.10;99.00;;;;;;10556623;28;20200;-80
2023/10/01 10:21:04;;;;;;;9.67;7.70;;;19.10;99.50;;;;;;10535949;28;20246;-78
2023/10/01 10:26:13;;;;;;;10.10;7.40;;;19.10;99.40;;;;;;10558686;28;20220;-81
2023/10/01 10:31:29;;;;;;;13.50;7.27;;;19.00;99.90;;;;;;10585635;28;20479;-80
2023/10/01 10:36:49;;;;;;;9.33;7.40;;;19.00;99.60;;;;;;10566943;28;20196;-81
2023/10/01 10:42:27;;;;;;;12.00;8.07;;;19.10;99.50;;;;;;10571486;28;20262;-81
2023/10/01 10:47:30;;;;;;;12.43;7.20;;;19.10;99.60;;;;;;10563344;28;20196;-81
2023/10/01 10:52:34;;;;;;;11.90;6.80;;;19.10;99.70;;;;;;10579806;28;20220;-81
2023/10/01 10:57:46;;;;;;;13.00;6.47;;;19.20;98.90;;;;;;10558876;28;20210;-81
2023/10/01 11:02:53;;;;;;;10.87;7.40;;;19.30;98.30;;;;;;10597742;28;20228;-80
2023/10/01 11:07:58;;;;;;;8.63;6.60;;;19.40;98.50;;;;;;10565504;28;20247;-80
2023/10/01 11:13:00;;;;;;;9.43;7.47;;;19.50;97.90;;;;;;10558365;28;20201;-80
2023/10/01 11:18:09;;;;;;;11.23;6.63;;;19.50;98.00;;;;;;10553413;28;20193;-80
2023/10/01 11:23:12;;;;;;;11.40;7.60;;;19.60;97.30;;;;;;10571264;28;20226;-80
2023/10/01 11:28:15;;;;;;;9.87;6.30;;;19.70;96.90;;;;;;10577996;28;20225;-80
2023/10/01 11:33:30;;;;;;;10.67;7.47;;;19.80;97.50;;;;;;10574353;28;20203;-79
2023/10/01 11:38:35;;;;;;;8.60;6.83;;;19.80;97.50;;;;;;10563985;28;20242;-79
2023/10/01 11:43:39;;;;;;;12.23;7.20;;;19.80;97.80;;;;;;10582116;28;20563;-80
2023/10/01 11:48:56;;;;;;;10.17;7.77;;;19.90;97.40;;;;;;10567530;28;20256;-80
2023/10/01 11:54:09;;;;;;;7.60;6.27;;;20.00;97.60;;;;;;10563207;28;20331;-80
2023/10/01 11:59:17;;;;;;;11.43;7.87;;;20.00;97.60;;;;;;10565905;28;20216;-81
2023/10/01 12:09:48;;;;;;;9.53;7.13;;;20.10;97.80;;;;;;10549509;28;20224;-80
2023/10/01 12:14:56;;;;;;;10.30;6.43;;;20.10;97.30;;;;;;10529353;28;20706;-81
2023/10/01 12:20:00;;;;;;;8.27;6.73;;;20.10;97.30;;;;;;10530445;28;20228;-80
2023/10/01 12:25:03;;;;;;;9.03;6.50;;;20.10;97.80;;;;;;10523767;28;20197;-80
2023/10/01 12:30:10;;;;;;;12.37;7.60;;;20.20;97.40;;;;;;10529094;28;20520;-81
2023/10/01 12:35:28;;;;;;;12.00;6.67;;;20.20;96.70;;;;;;10541601;28;20223;-80
2023/10/01 12:40:34;;;;;;;11.90;7.07;;;20.30;96.70;;;;;;10539732;28;20228;-81
2023/10/01 12:45:36;;;;;;;9.80;6.60;;;20.40;96.90;;;;;;10541019;28;20261;-81
2023/10/01 12:50:59;;;;;;;9.90;7.03;;;20.40;96.80;;;;;;10541245;28;20224;-81
2023/10/01 12:56:05;;;;;;;11.03;7.57;;;20.40;97.40;;;;;;10541010;28;20204;-82
2023/10/01 13:01:23;;;;;;;14.43;10.20;;;20.30;97.20;;;;;;10551147;28;20753;-82
2023/10/01 13:06:25;;;;;;;10.27;7.53;;;20.30;97.40;;;;;;10564829;28;20200;-82
2023/10/01 13:17:38;;;;;;;9.67;7.40;;;20.30;97.40;;;;;;10523226;27;2913450;-81
2023/10/01 13:22:48;;;;;;;8.90;7.10;;;20.20;96.50;;;;;;10544367;28;20319;-80
2023/10/01 13:28:01;;;;;;;11.20;6.97;;;20.30;96.40;;;;;;10562480;28;20204;-81
2023/10/01 13:33:14;;;;;;;9.50;6.30;;;20.30;96.60;;;;;;10553783;28;20243;-81
2023/10/01 13:38:27;;;;;;;9.23;5.87;;;20.40;95.70;;;;;;10557090;28;20323;-81
2023/10/01 14:10:16;;;;;;;10.57;6.80;;;20.20;97.50;;;;;;10556624;28;20240;-80
2023/10/01 14:15:25;;;;;;;9.47;6.20;;;20.20;98.40;;;;;;10545127;28;20220;-81
2023/10/01 14:20:46;;;;;;;10.53;6.77;;;20.10;98.40;;;;;;10556042;28;20251;-81
2023/10/01 14:25:53;;;;;;;9.40;6.90;;;20.10;98.20;;;;;;10526972;28;20247;-81
2023/10/01 14:31:05;;;;;;;12.03;7.27;;;20.00;99.00;;;;;;10491767;28;20228;-81
2023/10/01 14:36:11;;;;;;;10.10;7.10;;;20.10;97.00;;;;;;10508023;28;20600;-82
2023/10/01 14:41:16;;;;;;;9.73;6.47;;;20.30;95.70;;;;;;10501830;28;20694;-81
2023/10/01 14:46:18;;;;;;;9.33;6.20;;;20.30;96.30;;;;;;10509956;28;20196;-80
2023/10/01 14:51:25;;;;;;;9.93;6.07;;;20.40;95.30;;;;;;10488051;28;20238;-81
2023/10/01 14:56:31;;;;;;;9.27;5.80;;;20.40;94.90;;;;;;10485542;28;20236;-80
2023/10/01 15:01:37;;;;;;;10.30;6.50;;;20.40;94.90;;;;;;10485037;28;20216;-80
2023/10/01 15:06:39;;;;;;;12.80;7.57;;;20.40;95.20;;;;;;10504389;28;20649;-80
2023/10/01 15:11:48;;;;;;;9.37;6.73;;;20.40;94.60;;;;;;10511144;28;20209;-80
2023/10/01 15:16:52;;;;;;;9.43;5.93;;;20.40;95.90;;;;;;10497035;28;20299;-80
2023/10/01 15:22:03;;;;;;;10.37;6.60;;;20.40;95.10;;;;;;10517168;28;20273;-82
2023/10/01 15:27:06;;;;;;;7.63;5.90;;;20.40;92.70;;;;;;10465835;28;20242;-81
2023/10/01 15:32:15;;;;;;;8.80;5.37;;;20.50;94.10;;;;;;10482689;28;20224;-80
2023/10/01 15:37:18;;;;;;;11.90;7.10;;;20.60;93.50;;;;;;10505549;28;20216;-81
2023/10/01 15:42:24;;;;;;;8.17;5.57;;;20.70;93.80;;;;;;10527779;28;20220;-81
2023/10/01 15:47:36;;;;;;;12.13;6.27;;;20.70;93.60;;;;;;10505272;28;20205;-81
2023/10/01 15:52:46;;;;;;;9.93;6.73;;;20.70;93.70;;;;;;10515583;28;20221;-81
2023/10/01 15:57:55;;;;;;;9.30;5.40;;;20.80;93.90;;;;;;10508270;28;20252;-82
2023/10/01 16:03:06;;;;;;;9.07;6.30;;;20.80;93.70;;;;;;10478198;28;20202;-81
2023/10/01 16:08:17;;;;;;;11.07;7.07;;;20.80;93.60;;;;;;10516324;28;20565;-81
2023/10/01 16:13:27;;;;;;;8.63;5.80;;;20.80;93.40;;;;;;10527152;28;20311;-81
2023/10/01 16:18:30;;;;;;;10.10;6.40;;;20.80;93.00;;;;;;10518625;28;20217;-82
2023/10/01 16:23:36;;;;;;;9.30;6.13;;;20.70;92.90;;;;;;10525135;28;20577;-81
2023/10/01 16:28:42;;;;;;;8.03;5.90;;;20.70;92.70;;;;;;10538001;28;20217;-81
2023/10/01 16:33:46;;;;;;;10.50;6.03;;;20.60;92.80;;;;;;10536909;28;20232;-81
2023/10/01 16:44:38;;;;;;;9.67;6.80;;;20.50;92.70;;;;;;10449346;28;20239;-84
2023/10/01 17:09:50;;;;;;;21.30;14.03;;;20.00;92.50;;;;;;10408935;28;20458;-83
2023/10/01 17:55:13;;;;;;;12.00;7.50;;;19.10;92.50;;;;;;10409686;28;20229;-80
2023/10/01 18:17:55;;;;;;;9.17;6.40;;;18.80;93.10;;;;;;10318300;28;20202;-79
2023/10/01 18:29:34;;;;;;;10.37;6.90;;;18.70;92.90;;;;;;10405666;28;20246;-83
2023/10/01 19:17:28;;;;;;;10.93;6.30;;;18.20;93.40;;;;;;10451245;28;20594;-81
2023/10/01 19:28:50;;;;;;;13.93;6.80;;;18.20;93.80;;;;;;10457466;28;20309;-81
2023/10/01 19:40:53;;;;;;;13.00;7.00;;;18.00;94.00;;;;;;10458427;28;20316;-83
2023/10/01 19:46:41;;;;;;;9.17;5.80;;;18.00;93.60;;;;;;10452855;28;20277;-82
2023/10/01 19:51:59;;;;;;;7.43;5.00;;;18.00;93.70;;;;;;10457932;28;20238;-82
2023/10/01 19:57:17;;;;;;;8.03;4.77;;;18.00;93.80;;;;;;10456721;28;20218;-79
2023/10/01 20:02:53;;;;;;;10.60;7.10;;;17.90;94.10;;;;;;10442372;28;20217;-79
2023/10/01 20:08:45;;;;;;;10.03;5.50;;;17.90;94.30;;;;;;10455284;28;20287;-80
2023/10/01 20:25:46;;;;;;;8.60;4.67;;;17.70;94.70;;;;;;10381448;28;20207;-79
2023/10/01 20:37:40;;;;;;;8.93;5.60;;;17.60;94.90;;;;;;10441044;28;20218;-82
2023/10/01 20:43:13;;;;;;;7.43;5.80;;;17.50;95.30;;;;;;10458184;28;20738;-82
2023/10/01 20:48:45;;;;;;;9.40;6.37;;;17.60;95.60;;;;;;10457637;28;20197;-81
2023/10/01 20:54:21;;;;;;;9.93;6.37;;;17.50;95.60;;;;;;10458238;28;20359;-82
2023/10/01 21:00:42;;;;;;;10.10;6.40;;;17.50;95.60;;;;;;10398210;28;20205;-81
2023/10/01 21:05:56;;;;;;;10.77;6.07;;;17.50;95.90;;;;;;10455648;28;20198;-82
2023/10/01 21:11:18;;;;;;;9.77;6.40;;;17.40;96.30;;;;;;10448283;28;20548;-82
2023/10/01 21:16:59;;;;;;;8.60;6.10;;;17.40;96.60;;;;;;10455882;28;20225;-79
2023/10/01 21:22:36;;;;;;;11.13;6.50;;;17.40;96.80;;;;;;10450266;28;20225;-80
2023/10/01 21:27:43;;;;;;;13.57;6.17;;;17.40;97.20;;;;;;10454016;28;20227;-82
2023/10/01 21:32:55;;;;;;;9.07;6.07;;;17.30;97.30;;;;;;10460838;22;20222;-79
2023/10/01 21:38:10;;;;;;;9.97;6.90;;;17.30;97.40;;;;;;10458463;28;20215;-82
2023/10/01 21:43:19;;;;;;;9.23;5.93;;;17.30;97.40;;;;;;10486990;28;20221;-82
2023/10/01 21:48:21;;;;;;;10.40;6.60;;;17.30;97.50;;;;;;10495847;28;20244;-78
2023/10/01 21:53:30;;;;;;;9.10;7.00;;;17.30;97.60;;;;;;10483057;28;20560;-82
2023/10/01 21:58:35;;;;;;;10.33;7.30;;;17.30;97.70;;;;;;10491837;28;20193;-82
2023/10/01 22:03:44;;;;;;;9.87;6.50;;;17.20;97.70;;;;;;10472714;28;20237;-81
2023/10/01 22:08:48;;;;;;;9.53;6.07;;;17.20;97.80;;;;;;10488777;28;20225;-84
2023/10/01 22:13:57;;;;;;;10.10;6.67;;;17.20;97.70;;;;;;10472360;28;20663;-81
2023/10/01 22:19:02;;;;;;;10.60;6.70;;;17.20;97.80;;;;;;10483714;28;20244;-83
2023/10/01 22:24:19;;;;;;;11.13;6.03;;;17.10;97.80;;;;;;10467221;28;20523;-82
2023/10/01 22:29:27;;;;;;;12.60;7.30;;;17.10;97.90;;;;;;10492485;28;20225;-82
2023/10/01 22:34:33;;;;;;;11.97;8.53;;;17.00;97.90;;;;;;10477646;28;20210;-82
2023/10/01 22:39:39;;;;;;;11.77;7.13;;;17.00;97.90;;;;;;10480343;28;20440;-83
2023/10/01 22:44:43;;;;;;;11.73;7.13;;;17.00;97.90;;;;;;10478174;28;20207;-83
2023/10/01 22:49:49;;;;;;;11.20;7.30;;;16.90;97.90;;;;;;10495050;28;20688;-82
2023/10/01 22:54:51;;;;;;;8.40;6.10;;;16.90;98.20;;;;;;10480399;28;20226;-82
2023/10/01 22:59:56;;;;;;;10.53;7.00;;;16.90;98.30;;;;;;10488817;28;20269;-83
2023/10/01 23:04:58;;;;;;;12.00;7.27;;;16.80;98.20;;;;;;10467554;28;20218;-83
2023/10/01 23:10:01;;;;;;;9.77;7.10;;;16.80;98.20;;;;;;10482499;28;20229;-82
2023/10/01 23:15:09;;;;;;;9.47;6.43;;;16.80;98.20;;;;;;10494428;28;20237;-82
2023/10/01 23:20:12;;;;;;;12.53;7.63;;;16.70;98.30;;;;;;10492386;28;20249;-83
2023/10/01 23:25:17;;;;;;;9.23;6.80;;;16.70;98.40;;;;;;10475403;28;20256;-82
2023/10/01 23:30:22;;;;;;;12.53;7.73;;;16.70;98.60;;;;;;10489862;28;20234;-83
2023/10/01 23:40:44;;;;;;;10.77;7.90;;;16.60;98.80;;;;;;10485410;28;20210;-82
2023/10/01 23:45:58;;;;;;;11.13;6.73;;;16.60;98.90;;;;;;10479562;28;20563;-82
2023/10/01 23:51:00;;;;;;;10.70;7.20;;;16.60;99.00;;;;;;10489744;28;20284;-81
2023/10/01 23:56:13;;;;;;;8.80;6.87;;;16.60;98.90;;;;;;10496084;28;20279;-82
